sensor_id;sensor_type;location;lat;lon;timestamp;pressure;altitude;pressure_sealevel;temperature;humidity
30636;BME280;17400;52.392;9.750;2023-01-25T00:00:12;103151.06;;;2.07;100.00
30636;BME280;17400;52.392;9.750;2023-01-25T00:02:41;103150.75;;;1.95;100.00
30636;BME280;17400;52.392;9.750;2023-01-25T00:05:08;103135.25;;;2.02;100.00
30636;BME280;17400;52.392;9.750;2023-01-25T00:07:36;103127.00;;;2.07;100.00
30636;BME280;17400;52.392;9.750;2023-01-25T00:10:05;103131.66;;;2.03;100.00
30636;BME280;17400;52.392;9.750;2023-01-25T00:12:33;103126.91;;;2.08;100.00
30636;BME280;17400;52.392;9.750;2023-01-25T00:15:00;103122.28;;;1.94;100.00
30636;BME280;17400;52.392;9.750;2023-01-25T00:17:28;103127.91;;;1.90;100.00
30636;BME280;17400;52.392;9.750;2023-01-25T00:19:57;103120.34;;;1.98;100.00
30636;BME280;17400;52.392;9.750;2023-01-25T00:22:25;103113.88;;;2.02;100.00
30636;BME280;17400;52.392;9.750;2023-01-25T00:24:53;103112.09;;;2.03;100.00
30636;BME280;17400;52.392;9.750;2023-01-25T00:27:20;103106.22;;;1.96;100.00
30636;BME280;17400;52.392;9.750;2023-01-25T00:29:48;103105.72;;;1.88;100.00
30636;BME280;17400;52.392;9.750;2023-01-25T00:32:36;103107.50;;;2.05;100.00
30636;BME280;17400;52.392;9.750;2023-01-25T00:35:10;103102.44;;;2.00;100.00
30636;BME280;17400;52.392;9.750;2023-01-25T00:37:41;103111.72;;;1.75;100.00
30636;BME280;17400;52.392;9.750;2023-01-25T00:40:10;103109.84;;;1.77;100.00
30636;BME280;17400;52.392;9.750;2023-01-25T00:42:39;103115.03;;;1.80;100.00
30636;BME280;17400;52.392;9.750;2023-01-25T00:45:09;103104.78;;;1.89;100.00
30636;BME280;17400;52.392;9.750;2023-01-25T00:47:38;103103.41;;;1.81;100.00
30636;BME280;17400;52.392;9.750;2023-01-25T00:50:06;103098.50;;;1.90;100.00
30636;BME280;17400;52.392;9.750;2023-01-25T00:52:35;103095.44;;;1.97;100.00
30636;BME280;17400;52.392;9.750;2023-01-25T00:55:04;103095.59;;;1.94;100.00
30636;BME280;17400;52.392;9.750;2023-01-25T00:57:32;103087.50;;;1.96;100.00
30636;BME280;17400;52.392;9.750;2023-01-25T01:00:00;103082.03;;;1.81;100.00
30636;BME280;17400;52.392;9.750;2023-01-25T01:02:29;103077.22;;;1.71;100.00
30636;BME280;17400;52.392;9.750;2023-01-25T01:04:56;103083.53;;;1.70;100.00
30636;BME280;17400;52.392;9.750;2023-01-25T01:07:24;103089.09;;;1.65;100.00
30636;BME280;17400;52.392;9.750;2023-01-25T01:09:53;103090.00;;;1.65;100.00
30636;BME280;17400;52.392;9.750;2023-01-25T01:12:21;103086.75;;;1.76;100.00
30636;BME280;17400;52.392;9.750;2023-01-25T01:14:48;103082.25;;;1.77;100.00
30636;BME280;17400;52.392;9.750;2023-01-25T01:17:16;103091.78;;;1.65;100.00
30636;BME280;17400;52.392;9.750;2023-01-25T01:19:43;103093.69;;;1.63;100.00
30636;BME280;17400;52.392;9.750;2023-01-25T01:22:11;103092.03;;;1.60;100.00
30636;BME280;17400;52.392;9.750;2023-01-25T01:24:39;103089.50;;;1.75;100.00
30636;BME280;17400;52.392;9.750;2023-01-25T01:27:09;103077.81;;;1.77;100.00
30636;BME280;17400;52.392;9.750;2023-01-25T01:29:37;103090.00;;;1.65;100.00
30636;BME280;17400;52.392;9.750;2023-01-25T01:32:05;103076.84;;;1.78;100.00
30636;BME280;17400;52.392;9.750;2023-01-25T01:34:33;103070.72;;;1.76;100.00
30636;BME280;17400;52.392;9.750;2023-01-25T01:37:00;103076.94;;;1.77;100.00
30636;BME280;17400;52.392;9.750;2023-01-25T01:39:28;103068.16;;;1.75;100.00
30636;BME280;17400;52.392;9.750;2023-01-25T01:41:56;103061.97;;;1.57;100.00
30636;BME280;17400;52.392;9.750;2023-01-25T01:44:44;103066.97;;;1.45;100.00
30636;BME280;17400;52.392;9.750;2023-01-25T01:47:16;103052.53;;;1.67;100.00
30636;BME280;17400;52.392;9.750;2023-01-25T01:49:50;103057.88;;;1.67;100.00
30636;BME280;17400;52.392;9.750;2023-01-25T01:52:22;103051.59;;;1.68;100.00
30636;BME280;17400;52.392;9.750;2023-01-25T01:54:54;103052.97;;;1.75;100.00
30636;BME280;17400;52.392;9.750;2023-01-25T01:57:25;103045.91;;;1.74;100.00
30636;BME280;17400;52.392;9.750;2023-01-25T02:00:00;103044.03;;;1.76;100.00
30636;BME280;17400;52.392;9.750;2023-01-25T02:02:30;103041.84;;;1.67;100.00
30636;BME280;17400;52.392;9.750;2023-01-25T02:05:00;103035.72;;;1.65;100.00
30636;BME280;17400;52.392;9.750;2023-01-25T02:07:33;103039.09;;;1.69;100.00
30636;BME280;17400;52.392;9.750;2023-01-25T02:10:03;103043.63;;;1.66;100.00
30636;BME280;17400;52.392;9.750;2023-01-25T02:12:31;103040.59;;;1.57;100.00
30636;BME280;17400;52.392;9.750;2023-01-25T02:15:00;103038.28;;;1.66;100.00
30636;BME280;17400;52.392;9.750;2023-01-25T02:17:29;103042.94;;;1.63;100.00
30636;BME280;17400;52.392;9.750;2023-01-25T02:20:02;103044.19;;;1.56;100.00
30636;BME280;17400;52.392;9.750;2023-01-25T02:22:38;103044.34;;;1.70;100.00
30636;BME280;17400;52.392;9.750;2023-01-25T02:25:11;103045.00;;;1.58;100.00
30636;BME280;17400;52.392;9.750;2023-01-25T02:27:43;103036.50;;;1.49;100.00
30636;BME280;17400;52.392;9.750;2023-01-25T02:30:12;103050.97;;;1.45;100.00
30636;BME280;17400;52.392;9.750;2023-01-25T02:32:40;103041.09;;;1.47;100.00
30636;BME280;17400;52.392;9.750;2023-01-25T02:35:11;103041.41;;;1.59;100.00
30636;BME280;17400;52.392;9.750;2023-01-25T02:37:45;103047.00;;;1.70;100.00
30636;BME280;17400;52.392;9.750;2023-01-25T02:40:14;103036.09;;;1.75;100.00
30636;BME280;17400;52.392;9.750;2023-01-25T02:42:43;103041.25;;;1.78;100.00
30636;BME280;17400;52.392;9.750;2023-01-25T02:45:15;103029.78;;;1.76;100.00
30636;BME280;17400;52.392;9.750;2023-01-25T02:47:45;103032.00;;;1.67;100.00
30636;BME280;17400;52.392;9.750;2023-01-25T02:50:14;103025.81;;;1.49;100.00
30636;BME280;17400;52.392;9.750;2023-01-25T02:52:42;103019.06;;;1.60;100.00
30636;BME280;17400;52.392;9.750;2023-01-25T02:55:10;103020.22;;;1.72;100.00
30636;BME280;17400;52.392;9.750;2023-01-25T02:57:38;103012.28;;;1.70;100.00
30636;BME280;17400;52.392;9.750;2023-01-25T03:00:07;103014.66;;;1.76;100.00
30636;BME280;17400;52.392;9.750;2023-01-25T03:02:35;103001.13;;;1.79;100.00
30636;BME280;17400;52.392;9.750;2023-01-25T03:05:04;102991.72;;;1.72;100.00
30636;BME280;17400;52.392;9.750;2023-01-25T03:07:32;102990.91;;;1.54;100.00
30636;BME280;17400;52.392;9.750;2023-01-25T03:10:00;102993.56;;;1.54;100.00
30636;BME280;17400;52.392;9.750;2023-01-25T03:12:28;102990.91;;;1.54;100.00
30636;BME280;17400;52.392;9.750;2023-01-25T03:14:57;102990.72;;;1.57;100.00
30636;BME280;17400;52.392;9.750;2023-01-25T03:17:24;102980.66;;;1.62;100.00
30636;BME280;17400;52.392;9.750;2023-01-25T03:19:52;102982.72;;;1.57;100.00
30636;BME280;17400;52.392;9.750;2023-01-25T03:22:20;102983.91;;;1.52;100.00
30636;BME280;17400;52.392;9.750;2023-01-25T03:24:48;102981.53;;;1.63;100.00
30636;BME280;17400;52.392;9.750;2023-01-25T03:27:15;102976.03;;;1.66;100.00
30636;BME280;17400;52.392;9.750;2023-01-25T03:29:44;102986.22;;;1.75;100.00
30636;BME280;17400;52.392;9.750;2023-01-25T03:32:16;102980.59;;;1.80;100.00
30636;BME280;17400;52.392;9.750;2023-01-25T03:34:43;102973.38;;;1.82;100.00
30636;BME280;17400;52.392;9.750;2023-01-25T03:37:11;102978.09;;;1.77;100.00
30636;BME280;17400;52.392;9.750;2023-01-25T03:39:39;102980.03;;;1.75;100.00
30636;BME280;17400;52.392;9.750;2023-01-25T03:42:07;102970.88;;;1.79;100.00
30636;BME280;17400;52.392;9.750;2023-01-25T03:44:34;102964.22;;;1.70;100.00
30636;BME280;17400;52.392;9.750;2023-01-25T03:47:02;102966.56;;;1.76;100.00
30636;BME280;17400;52.392;9.750;2023-01-25T03:49:31;102963.19;;;1.73;100.00
30636;BME280;17400;52.392;9.750;2023-01-25T03:51:59;102964.53;;;1.48;100.00
30636;BME280;17400;52.392;9.750;2023-01-25T03:54:26;102959.09;;;1.49;100.00
30636;BME280;17400;52.392;9.750;2023-01-25T03:56:54;102959.75;;;1.37;100.00
30636;BME280;17400;52.392;9.750;2023-01-25T03:59:21;102966.44;;;1.46;100.00
30636;BME280;17400;52.392;9.750;2023-01-25T04:01:49;102952.38;;;1.42;100.00
30636;BME280;17400;52.392;9.750;2023-01-25T04:04:18;102959.63;;;1.23;100.00
30636;BME280;17400;52.392;9.750;2023-01-25T04:06:47;102955.88;;;1.43;100.00
30636;BME280;17400;52.392;9.750;2023-01-25T04:09:14;102959.56;;;1.58;100.00
30636;BME280;17400;52.392;9.750;2023-01-25T04:11:42;102958.13;;;1.35;100.00
30636;BME280;17400;52.392;9.750;2023-01-25T04:14:11;102949.53;;;1.45;100.00
30636;BME280;17400;52.392;9.750;2023-01-25T04:16:39;102944.66;;;1.54;100.00
30636;BME280;17400;52.392;9.750;2023-01-25T04:19:09;102940.09;;;1.56;100.00
30636;BME280;17400;52.392;9.750;2023-01-25T04:21:36;102932.50;;;1.64;100.00
30636;BME280;17400;52.392;9.750;2023-01-25T04:24:06;102935.03;;;1.67;100.00
30636;BME280;17400;52.392;9.750;2023-01-25T04:26:34;102931.56;;;1.65;100.00
30636;BME280;17400;52.392;9.750;2023-01-25T04:29:01;102922.63;;;1.66;100.00
30636;BME280;17400;52.392;9.750;2023-01-25T04:31:29;102928.06;;;1.64;100.00
30636;BME280;17400;52.392;9.750;2023-01-25T04:33:57;102930.03;;;1.61;100.00
30636;BME280;17400;52.392;9.750;2023-01-25T04:36:24;102922.00;;;1.45;100.00
30636;BME280;17400;52.392;9.750;2023-01-25T04:38:52;102924.88;;;1.58;100.00
30636;BME280;17400;52.392;9.750;2023-01-25T04:41:21;102926.38;;;1.46;100.00
30636;BME280;17400;52.392;9.750;2023-01-25T04:43:52;102919.06;;;1.49;100.00
30636;BME280;17400;52.392;9.750;2023-01-25T04:46:19;102921.91;;;1.46;100.00
30636;BME280;17400;52.392;9.750;2023-01-25T04:48:47;102923.13;;;1.57;100.00
30636;BME280;17400;52.392;9.750;2023-01-25T04:51:15;102919.44;;;1.59;100.00
30636;BME280;17400;52.392;9.750;2023-01-25T04:53:42;102924.19;;;1.70;100.00
30636;BME280;17400;52.392;9.750;2023-01-25T04:56:10;102912.66;;;1.70;100.00
30636;BME280;17400;52.392;9.750;2023-01-25T04:58:39;102909.09;;;1.69;100.00
30636;BME280;17400;52.392;9.750;2023-01-25T05:01:07;102912.28;;;1.76;100.00
30636;BME280;17400;52.392;9.750;2023-01-25T05:03:35;102908.84;;;1.74;100.00
30636;BME280;17400;52.392;9.750;2023-01-25T05:06:03;102906.09;;;1.75;100.00
30636;BME280;17400;52.392;9.750;2023-01-25T05:08:31;102909.97;;;1.70;100.00
30636;BME280;17400;52.392;9.750;2023-01-25T05:10:59;102901.88;;;1.71;100.00
30636;BME280;17400;52.392;9.750;2023-01-25T05:13:26;102903.75;;;1.69;100.00
30636;BME280;17400;52.392;9.750;2023-01-25T05:15:56;102907.53;;;1.65;100.00
30636;BME280;17400;52.392;9.750;2023-01-25T05:18:23;102904.53;;;1.55;100.00
30636;BME280;17400;52.392;9.750;2023-01-25T05:20:56;102902.78;;;1.38;100.00
30636;BME280;17400;52.392;9.750;2023-01-25T05:23:24;102897.88;;;1.46;100.00
30636;BME280;17400;52.392;9.750;2023-01-25T05:25:52;102894.88;;;1.53;100.00
30636;BME280;17400;52.392;9.750;2023-01-25T05:28:36;102896.25;;;1.60;100.00
30636;BME280;17400;52.392;9.750;2023-01-25T05:31:05;102893.25;;;1.66;100.00
30636;BME280;17400;52.392;9.750;2023-01-25T05:33:33;102893.69;;;1.58;100.00
30636;BME280;17400;52.392;9.750;2023-01-25T05:36:01;102884.81;;;1.58;100.00
30636;BME280;17400;52.392;9.750;2023-01-25T05:38:28;102884.13;;;1.54;100.00
30636;BME280;17400;52.392;9.750;2023-01-25T05:40:57;102881.03;;;1.62;100.00
30636;BME280;17400;52.392;9.750;2023-01-25T05:43:24;102883.69;;;1.62;100.00
30636;BME280;17400;52.392;9.750;2023-01-25T05:45:52;102877.22;;;1.66;100.00
30636;BME280;17400;52.392;9.750;2023-01-25T05:48:21;102880.69;;;1.68;100.00
30636;BME280;17400;52.392;9.750;2023-01-25T05:50:49;102880.50;;;1.71;100.00
30636;BME280;17400;52.392;9.750;2023-01-25T05:53:16;102884.81;;;1.74;100.00
30636;BME280;17400;52.392;9.750;2023-01-25T05:55:44;102878.16;;;1.65;100.00
30636;BME280;17400;52.392;9.750;2023-01-25T05:58:12;102873.25;;;1.73;100.00
30636;BME280;17400;52.392;9.750;2023-01-25T06:00:39;102870.34;;;1.78;100.00
30636;BME280;17400;52.392;9.750;2023-01-25T06:03:07;102877.66;;;1.74;100.00
30636;BME280;17400;52.392;9.750;2023-01-25T06:05:36;102878.78;;;1.70;100.00
30636;BME280;17400;52.392;9.750;2023-01-25T06:08:04;102873.88;;;1.78;100.00
30636;BME280;17400;52.392;9.750;2023-01-25T06:10:32;102863.19;;;1.78;100.00
30636;BME280;17400;52.392;9.750;2023-01-25T06:13:00;102864.69;;;1.68;100.00
30636;BME280;17400;52.392;9.750;2023-01-25T06:15:28;102867.25;;;1.70;100.00
30636;BME280;17400;52.392;9.750;2023-01-25T06:17:56;102861.63;;;1.74;100.00
30636;BME280;17400;52.392;9.750;2023-01-25T06:20:23;102857.09;;;1.76;100.00
30636;BME280;17400;52.392;9.750;2023-01-25T06:22:52;102858.72;;;1.63;100.00
30636;BME280;17400;52.392;9.750;2023-01-25T06:25:20;102856.66;;;1.68;100.00
30636;BME280;17400;52.392;9.750;2023-01-25T06:27:48;102860.19;;;1.69;100.00
30636;BME280;17400;52.392;9.750;2023-01-25T06:30:16;102849.50;;;1.53;100.00
30636;BME280;17400;52.392;9.750;2023-01-25T06:32:44;102851.84;;;1.59;100.00
30636;BME280;17400;52.392;9.750;2023-01-25T06:35:11;102846.94;;;1.67;100.00
30636;BME280;17400;52.392;9.750;2023-01-25T06:37:39;102847.78;;;1.52;100.00
30636;BME280;17400;52.392;9.750;2023-01-25T06:40:10;102856.81;;;1.65;100.00
30636;BME280;17400;52.392;9.750;2023-01-25T06:42:38;102857.94;;;1.61;100.00
30636;BME280;17400;52.392;9.750;2023-01-25T06:45:06;102848.47;;;1.71;100.00
30636;BME280;17400;52.392;9.750;2023-01-25T06:47:35;102852.00;;;1.72;100.00
30636;BME280;17400;52.392;9.750;2023-01-25T06:50:03;102845.63;;;1.74;100.00
30636;BME280;17400;52.392;9.750;2023-01-25T06:52:31;102845.72;;;1.73;100.00
30636;BME280;17400;52.392;9.750;2023-01-25T06:55:02;102860.19;;;1.69;100.00
30636;BME280;17400;52.392;9.750;2023-01-25T06:57:31;102864.50;;;1.71;100.00
30636;BME280;17400;52.392;9.750;2023-01-25T06:59:59;102857.69;;;1.65;100.00
30636;BME280;17400;52.392;9.750;2023-01-25T07:02:27;102863.09;;;1.64;100.00
30636;BME280;17400;52.392;9.750;2023-01-25T07:04:55;102855.44;;;1.58;100.00
30636;BME280;17400;52.392;9.750;2023-01-25T07:07:22;102854.13;;;1.33;100.00
30636;BME280;17400;52.392;9.750;2023-01-25T07:09:50;102854.47;;;1.43;100.00
30636;BME280;17400;52.392;9.750;2023-01-25T07:12:18;102854.31;;;1.62;100.00
30636;BME280;17400;52.392;9.750;2023-01-25T07:14:47;102855.69;;;1.69;100.00
30636;BME280;17400;52.392;9.750;2023-01-25T07:17:15;102850.44;;;1.67;100.00
30636;BME280;17400;52.392;9.750;2023-01-25T07:19:43;102844.59;;;1.77;100.00
30636;BME280;17400;52.392;9.750;2023-01-25T07:22:10;102839.59;;;1.87;100.00
30636;BME280;17400;52.392;9.750;2023-01-25T07:24:38;102845.59;;;1.90;100.00
30636;BME280;17400;52.392;9.750;2023-01-25T07:27:06;102846.41;;;1.76;100.00
30636;BME280;17400;52.392;9.750;2023-01-25T07:29:34;102843.97;;;1.72;100.00
30636;BME280;17400;52.392;9.750;2023-01-25T07:32:03;102848.81;;;1.65;100.00
30636;BME280;17400;52.392;9.750;2023-01-25T07:34:32;102864.81;;;1.65;100.00
30636;BME280;17400;52.392;9.750;2023-01-25T07:37:01;102859.06;;;1.73;100.00
30636;BME280;17400;52.392;9.750;2023-01-25T07:39:29;102838.13;;;1.81;100.00
30636;BME280;17400;52.392;9.750;2023-01-25T07:41:57;102848.28;;;1.90;100.00
30636;BME280;17400;52.392;9.750;2023-01-25T07:44:27;102847.09;;;1.96;100.00
30636;BME280;17400;52.392;9.750;2023-01-25T07:46:55;102846.28;;;1.94;100.00
30636;BME280;17400;52.392;9.750;2023-01-25T07:49:24;102842.00;;;1.91;100.00
30636;BME280;17400;52.392;9.750;2023-01-25T07:51:51;102836.47;;;1.78;100.00
30636;BME280;17400;52.392;9.750;2023-01-25T07:54:19;102821.59;;;1.74;100.00
30636;BME280;17400;52.392;9.750;2023-01-25T07:56:47;102825.97;;;1.75;100.00
30636;BME280;17400;52.392;9.750;2023-01-25T07:59:15;102826.06;;;1.74;100.00
30636;BME280;17400;52.392;9.750;2023-01-25T08:01:42;102825.88;;;1.77;100.00
30636;BME280;17400;52.392;9.750;2023-01-25T08:04:10;102822.78;;;1.85;100.00
30636;BME280;17400;52.392;9.750;2023-01-25T08:06:39;102828.53;;;1.93;100.00
30636;BME280;17400;52.392;9.750;2023-01-25T08:09:10;102829.75;;;2.03;100.00
30636;BME280;17400;52.392;9.750;2023-01-25T08:11:38;102819.84;;;2.05;100.00
30636;BME280;17400;52.392;9.750;2023-01-25T08:14:07;102828.00;;;2.02;100.00
30636;BME280;17400;52.392;9.750;2023-01-25T08:16:36;102828.38;;;1.96;100.00
30636;BME280;17400;52.392;9.750;2023-01-25T08:19:04;102829.47;;;1.92;100.00
30636;BME280;17400;52.392;9.750;2023-01-25T08:21:33;102827.00;;;1.89;100.00
30636;BME280;17400;52.392;9.750;2023-01-25T08:24:04;102823.91;;;1.80;100.00
30636;BME280;17400;52.392;9.750;2023-01-25T08:26:32;102822.09;;;1.81;100.00
30636;BME280;17400;52.392;9.750;2023-01-25T08:29:01;102821.25;;;1.80;100.00
30636;BME280;17400;52.392;9.750;2023-01-25T08:31:30;102820.31;;;1.81;100.00
30636;BME280;17400;52.392;9.750;2023-01-25T08:33:59;102818.13;;;1.88;100.00
30636;BME280;17400;52.392;9.750;2023-01-25T08:36:27;102814.69;;;1.86;100.00
30636;BME280;17400;52.392;9.750;2023-01-25T08:38:56;102817.44;;;1.85;100.00
30636;BME280;17400;52.392;9.750;2023-01-25T08:41:27;102812.72;;;1.74;100.00
30636;BME280;17400;52.392;9.750;2023-01-25T08:43:55;102803.94;;;1.72;100.00
30636;BME280;17400;52.392;9.750;2023-01-25T08:46:25;102802.38;;;1.83;100.00
30636;BME280;17400;52.392;9.750;2023-01-25T08:48:58;102801.06;;;1.91;100.00
30636;BME280;17400;52.392;9.750;2023-01-25T08:51:26;102786.25;;;1.85;100.00
30636;BME280;17400;52.392;9.750;2023-01-25T08:53:54;102787.47;;;1.79;100.00
30636;BME280;17400;52.392;9.750;2023-01-25T08:56:22;102788.31;;;1.80;100.00
30636;BME280;17400;52.392;9.750;2023-01-25T08:58:51;102776.03;;;1.77;100.00
30636;BME280;17400;52.392;9.750;2023-01-25T09:01:18;102778.16;;;1.87;100.00
30636;BME280;17400;52.392;9.750;2023-01-25T09:03:48;102778.56;;;1.95;100.00
30636;BME280;17400;52.392;9.750;2023-01-25T09:06:17;102771.91;;;2.02;100.00
30636;BME280;17400;52.392;9.750;2023-01-25T09:08:46;102780.38;;;1.94;100.00
30636;BME280;17400;52.392;9.750;2023-01-25T09:11:19;102780.84;;;1.71;100.00
30636;BME280;17400;52.392;9.750;2023-01-25T09:13:48;102780.16;;;1.83;100.00
30636;BME280;17400;52.392;9.750;2023-01-25T09:16:19;102779.53;;;1.78;100.00
30636;BME280;17400;52.392;9.750;2023-01-25T09:18:54;102765.25;;;1.79;100.00
30636;BME280;17400;52.392;9.750;2023-01-25T09:21:23;102774.63;;;1.86;100.00
30636;BME280;17400;52.392;9.750;2023-01-25T09:23:53;102772.63;;;1.90;100.00
30636;BME280;17400;52.392;9.750;2023-01-25T09:26:38;102773.69;;;1.71;100.00
30636;BME280;17400;52.392;9.750;2023-01-25T09:29:08;102766.91;;;1.65;100.00
30636;BME280;17400;52.392;9.750;2023-01-25T09:31:38;102759.41;;;1.72;100.00
30636;BME280;17400;52.392;9.750;2023-01-25T09:34:10;102753.53;;;1.81;100.00
30636;BME280;17400;52.392;9.750;2023-01-25T09:36:38;102753.25;;;1.86;100.00
30636;BME280;17400;52.392;9.750;2023-01-25T09:39:08;102757.16;;;1.80;100.00
30636;BME280;17400;52.392;9.750;2023-01-25T09:42:03;102756.72;;;1.88;100.00
30636;BME280;17400;52.392;9.750;2023-01-25T09:44:53;102755.22;;;1.98;100.00
30636;BME280;17400;52.392;9.750;2023-01-25T09:47:29;102747.47;;;1.94;100.00
30636;BME280;17400;52.392;9.750;2023-01-25T09:50:16;102734.88;;;1.96;100.00
30636;BME280;17400;52.392;9.750;2023-01-25T09:53:04;102730.19;;;1.99;100.00
30636;BME280;17400;52.392;9.750;2023-01-25T09:55:33;102731.53;;;1.92;100.00
30636;BME280;17400;52.392;9.750;2023-01-25T09:58:02;102730.94;;;1.87;100.00
30636;BME280;17400;52.392;9.750;2023-01-25T10:00:32;102730.25;;;1.83;100.00
30636;BME280;17400;52.392;9.750;2023-01-25T10:03:11;102727.09;;;1.77;100.00
30636;BME280;17400;52.392;9.750;2023-01-25T10:05:44;102726.03;;;1.79;100.00
30636;BME280;17400;52.392;9.750;2023-01-25T10:08:19;102720.66;;;1.65;100.00
30636;BME280;17400;52.392;9.750;2023-01-25T10:10:50;102722.22;;;1.53;100.00
30636;BME280;17400;52.392;9.750;2023-01-25T10:13:23;102721.47;;;1.51;100.00
30636;BME280;17400;52.392;9.750;2023-01-25T10:15:52;102715.94;;;1.38;100.00
30636;BME280;17400;52.392;9.750;2023-01-25T10:18:28;102705.44;;;1.51;100.00
30636;BME280;17400;52.392;9.750;2023-01-25T10:21:01;102706.25;;;1.67;100.00
30636;BME280;17400;52.392;9.750;2023-01-25T10:23:40;102707.28;;;1.65;100.00
30636;BME280;17400;52.392;9.750;2023-01-25T10:26:19;102694.22;;;1.60;100.00
30636;BME280;17400;52.392;9.750;2023-01-25T10:28:55;102692.16;;;1.65;100.00
30636;BME280;17400;52.392;9.750;2023-01-25T10:31:32;102685.78;;;1.68;100.00
30636;BME280;17400;52.392;9.750;2023-01-25T10:34:14;102689.84;;;1.59;100.00
30636;BME280;17400;52.392;9.750;2023-01-25T10:36:46;102685.09;;;1.64;100.00
30636;BME280;17400;52.392;9.750;2023-01-25T10:39:16;102673.66;;;1.46;100.00
30636;BME280;17400;52.392;9.750;2023-01-25T10:41:47;102673.47;;;1.49;100.00
30636;BME280;17400;52.392;9.750;2023-01-25T10:44:17;102668.50;;;1.43;100.00
30636;BME280;17400;52.392;9.750;2023-01-25T10:46:55;102666.00;;;1.56;100.00
30636;BME280;17400;52.392;9.750;2023-01-25T10:49:28;102664.88;;;1.60;100.00
30636;BME280;17400;52.392;9.750;2023-01-25T10:52:11;102657.44;;;1.65;100.00
30636;BME280;17400;52.392;9.750;2023-01-25T10:54:39;102654.72;;;1.81;100.00
30636;BME280;17400;52.392;9.750;2023-01-25T10:57:08;102642.13;;;1.83;100.00
30636;BME280;17400;52.392;9.750;2023-01-25T10:59:38;102637.44;;;1.73;100.00
30636;BME280;17400;52.392;9.750;2023-01-25T11:02:35;102635.44;;;1.76;100.00
30636;BME280;17400;52.392;9.750;2023-01-25T11:05:27;102635.44;;;1.76;100.00
30636;BME280;17400;52.392;9.750;2023-01-25T11:07:56;102633.13;;;1.70;100.00
30636;BME280;17400;52.392;9.750;2023-01-25T11:10:29;102637.06;;;1.79;100.00
30636;BME280;17400;52.392;9.750;2023-01-25T11:13:18;102631.16;;;1.88;100.00
30636;BME280;17400;52.392;9.750;2023-01-25T11:15:48;102631.44;;;1.83;100.00
30636;BME280;17400;52.392;9.750;2023-01-25T11:18:19;102625.84;;;1.88;100.00
30636;BME280;17400;52.392;9.750;2023-01-25T11:21:02;102628.41;;;1.90;100.00
30636;BME280;17400;52.392;9.750;2023-01-25T11:23:31;102621.13;;;1.92;100.00
30636;BME280;17400;52.392;9.750;2023-01-25T11:26:11;102618.00;;;1.55;100.00
30636;BME280;17400;52.392;9.750;2023-01-25T11:28:39;102614.59;;;1.53;100.00
30636;BME280;17400;52.392;9.750;2023-01-25T11:31:10;102609.00;;;1.41;100.00
30636;BME280;17400;52.392;9.750;2023-01-25T11:33:40;102600.06;;;1.42;100.00
30636;BME280;17400;52.392;9.750;2023-01-25T11:36:28;102593.00;;;1.41;100.00
30636;BME280;17400;52.392;9.750;2023-01-25T11:39:16;102588.66;;;1.55;100.00
30636;BME280;17400;52.392;9.750;2023-01-25T11:41:54;102582.59;;;1.67;100.00
30636;BME280;17400;52.392;9.750;2023-01-25T11:45:01;102574.44;;;1.54;100.00
30636;BME280;17400;52.392;9.750;2023-01-25T11:47:43;102556.78;;;1.37;100.00
30636;BME280;17400;52.392;9.750;2023-01-25T11:50:22;102559.84;;;1.45;100.00
30636;BME280;17400;52.392;9.750;2023-01-25T11:53:15;102557.28;;;1.44;100.00
30636;BME280;17400;52.392;9.750;2023-01-25T11:55:54;102552.22;;;1.39;100.00
30636;BME280;17400;52.392;9.750;2023-01-25T11:58:37;102550.88;;;1.46;100.00
30636;BME280;17400;52.392;9.750;2023-01-25T12:01:15;102541.19;;;1.60;100.00
30636;BME280;17400;52.392;9.750;2023-01-25T12:04:03;102529.84;;;1.56;100.00
30636;BME280;17400;52.392;9.750;2023-01-25T12:06:43;102528.25;;;1.68;100.00
30636;BME280;17400;52.392;9.750;2023-01-25T12:09:35;102512.72;;;1.75;100.00
30636;BME280;17400;52.392;9.750;2023-01-25T12:12:13;102502.03;;;1.75;100.00
30636;BME280;17400;52.392;9.750;2023-01-25T12:15:02;102492.78;;;1.80;100.00
30636;BME280;17400;52.392;9.750;2023-01-25T12:17:44;102489.53;;;1.75;100.00
30636;BME280;17400;52.392;9.750;2023-01-25T12:20:38;102485.13;;;1.74;100.00
30636;BME280;17400;52.392;9.750;2023-01-25T12:23:20;102491.81;;;1.81;100.00
30636;BME280;17400;52.392;9.750;2023-01-25T12:26:02;102484.91;;;1.92;100.00
30636;BME280;17400;52.392;9.750;2023-01-25T12:28:35;102483.59;;;1.99;100.00
30636;BME280;17400;52.392;9.750;2023-01-25T12:31:09;102474.66;;;1.71;100.00
30636;BME280;17400;52.392;9.750;2023-01-25T12:33:42;102466.44;;;1.60;100.00
30636;BME280;17400;52.392;9.750;2023-01-25T12:36:16;102452.59;;;1.39;100.00
30636;BME280;17400;52.392;9.750;2023-01-25T12:38:51;102449.47;;;1.46;100.00
30636;BME280;17400;52.392;9.750;2023-01-25T12:41:30;102450.41;;;1.60;100.00
30636;BME280;17400;52.392;9.750;2023-01-25T12:44:06;102442.59;;;1.71;100.00
30636;BME280;17400;52.392;9.750;2023-01-25T12:46:41;102443.75;;;1.81;100.00
30636;BME280;17400;52.392;9.750;2023-01-25T12:49:18;102429.63;;;1.79;100.00
30636;BME280;17400;52.392;9.750;2023-01-25T12:51:49;102425.22;;;1.78;100.00
30636;BME280;17400;52.392;9.750;2023-01-25T12:54:21;102419.16;;;1.76;100.00
30636;BME280;17400;52.392;9.750;2023-01-25T12:56:57;102414.28;;;1.69;100.00
30636;BME280;17400;52.392;9.750;2023-01-25T12:59:33;102405.97;;;1.73;100.00
30636;BME280;17400;52.392;9.750;2023-01-25T13:02:18;102396.25;;;1.87;100.00
30636;BME280;17400;52.392;9.750;2023-01-25T13:04:57;102397.09;;;1.87;100.00
30636;BME280;17400;52.392;9.750;2023-01-25T13:07:33;102380.84;;;1.63;100.00
30636;BME280;17400;52.392;9.750;2023-01-25T13:10:07;102368.44;;;1.62;100.00